createdAt,value
2022-07-26T00:01:07.859Z,31.5
2022-07-26T00:03:22.772Z,32.9
2022-07-26T00:05:37.651Z,32.5
2022-07-26T00:07:52.407Z,32.4
2022-07-26T00:10:07.314Z,32.3
2022-07-26T00:12:22.118Z,32.4
2022-07-26T00:14:36.971Z,32.4
2022-07-26T00:16:51.785Z,32.3
2022-07-26T00:19:06.903Z,32.8
2022-07-26T00:21:21.553Z,32.6
2022-07-26T00:23:36.676Z,32.5
2022-07-26T00:25:51.273Z,32.6
2022-07-26T00:28:06.109Z,32.6
2022-07-26T00:30:20.939Z,32.7
2022-07-26T00:32:35.672Z,32.7
2022-07-26T00:34:50.757Z,32.4
2022-07-26T00:37:05.495Z,32.3
2022-07-26T00:39:20.279Z,32.4
2022-07-26T00:41:35.291Z,32.3
2022-07-26T00:43:49.939Z,32.3
2022-07-26T00:46:04.931Z,32.5
2022-07-26T00:48:19.811Z,32.4
2022-07-26T00:50:34.559Z,32.4
2022-07-26T00:52:49.471Z,31.1
2022-07-26T00:55:04.278Z,32.3
2022-07-26T00:57:19.069Z,31.9
2022-07-26T00:59:34.217Z,32.1
2022-07-26T01:01:49.028Z,31.5
2022-07-26T01:04:03.654Z,32.7
2022-07-26T01:06:18.630Z,32.6
2022-07-26T01:08:33.352Z,31.6
2022-07-26T01:10:48.396Z,32.3
2022-07-26T01:13:03.115Z,31.7
2022-07-26T01:15:17.955Z,31.6
2022-07-26T01:17:32.813Z,32.1
2022-07-26T01:19:47.659Z,33
2022-07-26T01:22:02.428Z,32.8
2022-07-26T01:24:17.642Z,31.5
2022-07-26T01:26:32.174Z,32.7
2022-07-26T01:28:47.038Z,31.8
2022-07-26T01:31:01.969Z,32.3
2022-07-26T01:33:16.830Z,32.3
2022-07-26T01:35:31.771Z,32.3
2022-07-26T01:37:46.330Z,32.1
2022-07-26T01:40:01.311Z,32.4
2022-07-26T01:42:16.129Z,32.1
2022-07-26T01:44:30.831Z,32.1
2022-07-26T01:46:45.695Z,32.4
2022-07-26T01:49:00.628Z,32.5
2022-07-26T01:51:15.544Z,32.4
2022-07-26T01:53:30.386Z,31.7
2022-07-26T01:55:45.241Z,32.4
2022-07-26T01:57:59.998Z,31.3
2022-07-26T02:00:14.931Z,31.8
2022-07-26T02:02:29.819Z,32.3
2022-07-26T02:04:44.610Z,32
2022-07-26T02:06:59.465Z,31.4
2022-07-26T02:09:14.336Z,31.6
2022-07-26T02:11:29.204Z,31.3
2022-07-26T03:38:04.572Z,33.8
2022-07-26T03:40:19.691Z,35.3
2022-07-26T03:42:34.275Z,35.9
2022-07-26T03:44:49.215Z,33.3
2022-07-26T03:47:03.981Z,33.7
2022-07-26T03:49:18.916Z,33.6
2022-07-26T03:51:33.761Z,32.9
2022-07-26T03:53:48.631Z,33.2
2022-07-26T03:56:03.388Z,32.8
2022-07-26T03:58:18.271Z,32.5
2022-07-26T04:00:33.070Z,32.4
2022-07-26T04:02:48.063Z,31.3
2022-07-26T04:05:02.897Z,32.1
2022-07-26T04:07:17.669Z,32.3
2022-07-26T04:09:39.013Z,32.3
2022-07-26T04:11:53.883Z,32.1
2022-07-26T04:14:08.925Z,31.9
2022-07-26T04:16:23.505Z,31.9
2022-07-26T04:18:38.422Z,31.9
2022-07-26T04:20:53.256Z,31.8
2022-07-26T04:23:10.600Z,31.6
2022-07-26T04:25:23.030Z,31.6
2022-07-26T04:27:37.930Z,30.8
2022-07-26T04:29:56.922Z,31.8
2022-07-26T04:32:13.188Z,32.1
2022-07-26T04:34:28.059Z,30.9
2022-07-26T04:36:43.038Z,31
2022-07-26T04:38:57.682Z,32.1
2022-07-26T04:41:12.626Z,31.8
2022-07-26T04:43:27.460Z,31.6
2022-07-26T04:45:42.889Z,31.8
2022-07-26T04:47:57.175Z,31.6
2022-07-26T04:50:12.008Z,31.8
2022-07-26T04:52:27.068Z,31.6
2022-07-26T04:54:41.606Z,31.4
2022-07-26T04:56:56.462Z,31.6
2022-07-26T04:59:11.364Z,31.8
2022-07-26T05:01:42.569Z,31.7
2022-07-26T05:03:57.340Z,31.6
2022-07-26T05:06:12.125Z,31.9
2022-07-26T05:08:27.054Z,31.8
2022-07-26T05:10:44.145Z,32.1
2022-07-26T05:13:03.518Z,31.8
2022-07-26T05:15:18.193Z,31.8
2022-07-26T05:20:10.866Z,31
2022-07-26T05:22:26.272Z,31.3
2022-07-26T05:24:59.704Z,31.7
2022-07-26T05:27:14.569Z,31.8
2022-07-26T05:29:29.449Z,31.7
2022-07-26T05:31:44.358Z,30.8
2022-07-26T05:33:59.085Z,32.2
2022-07-26T05:36:13.901Z,31.6
2022-07-26T05:38:28.760Z,32.1
2022-07-26T05:40:47.270Z,31.4
2022-07-26T05:42:59.084Z,32.5
2022-07-26T05:45:13.621Z,30.7
2022-07-26T05:47:28.400Z,32
2022-07-26T05:49:43.420Z,32
2022-07-26T05:52:01.260Z,31.8
2022-07-26T05:54:13.270Z,31.7
2022-07-26T05:56:27.794Z,31.9
2022-07-26T05:58:42.632Z,32.5
2022-07-26T06:00:57.542Z,32.1
2022-07-26T06:03:12.446Z,30.9
2022-07-26T06:05:27.273Z,31.1
2022-07-26T06:07:42.195Z,32.2
2022-07-26T06:09:57.162Z,32.1
2022-07-26T06:12:11.777Z,31.6
2022-07-26T06:14:26.662Z,31.7
2022-07-26T06:16:41.478Z,31.6
2022-07-26T06:18:56.286Z,31.6
2022-07-26T06:21:11.202Z,32
2022-07-26T06:23:31.038Z,31.6
2022-07-26T06:25:45.847Z,31.6
2022-07-26T06:28:00.697Z,31.8
2022-07-26T06:30:19.542Z,31.9
2022-07-26T06:32:34.410Z,32.2
2022-07-26T06:34:49.248Z,31.6
2022-07-26T06:37:04.068Z,31.8
2022-07-26T06:39:18.876Z,30.9
2022-07-26T06:41:33.855Z,31.1
2022-07-26T06:43:48.643Z,32.1
2022-07-26T06:46:03.615Z,31.9
2022-07-26T06:48:18.322Z,31.9
2022-07-26T06:50:32.653Z,32
2022-07-26T06:52:48.110Z,31.6
2022-07-26T06:55:02.910Z,32
2022-07-26T06:57:17.779Z,31.7
2022-07-26T06:59:32.524Z,31.1
2022-07-26T07:02:16.110Z,31.8
2022-07-26T07:04:30.955Z,31.6
2022-07-26T07:06:45.773Z,31.9
2022-07-26T07:09:00.628Z,31.8
2022-07-26T07:11:15.454Z,31.4
2022-07-26T07:13:30.355Z,30.6
2022-07-26T07:15:45.272Z,32.1
2022-07-26T07:18:00.119Z,31
2022-07-26T07:20:14.922Z,31.1
2022-07-26T07:22:29.806Z,31.7
2022-07-26T07:24:44.709Z,31.1
2022-07-26T07:26:59.426Z,32.1
2022-07-26T07:29:14.315Z,31.9
2022-07-26T07:31:30.097Z,31.1
2022-07-26T07:33:52.993Z,31.1
2022-07-26T07:35:58.780Z,32.3
2022-07-26T07:38:25.873Z,31.8
2022-07-26T07:40:40.795Z,31.9
2022-07-26T07:42:55.603Z,31.8
2022-07-26T07:45:10.533Z,32.1
2022-07-26T07:47:25.305Z,32
2022-07-26T07:49:40.131Z,32.3
2022-07-26T07:51:55.072Z,31.8
2022-07-26T07:54:09.771Z,31.8
2022-07-26T07:56:43.329Z,31.6
2022-07-26T07:58:58.303Z,32.1
2022-07-26T08:01:13.290Z,32.2
2022-07-26T08:03:38.327Z,31.4
2022-07-26T08:05:43.425Z,31.2
2022-07-26T08:07:58.336Z,31
2022-07-26T08:10:13.211Z,30.9
2022-07-26T08:12:27.899Z,31.3
2022-07-26T08:14:42.702Z,31.1
2022-07-26T08:16:57.689Z,30.9
2022-07-26T08:19:15.551Z,31.2
2022-07-26T08:21:29.368Z,30.9
2022-07-26T08:23:43.877Z,31.3
2022-07-26T08:26:02.029Z,31.1
2022-07-26T08:28:31.013Z,31.1
2022-07-26T08:30:40.387Z,31.5
2022-07-26T08:32:55.220Z,31.7
2022-07-26T08:35:20.202Z,31.1
2022-07-26T08:37:48.222Z,31.3
2022-07-26T08:40:03.147Z,31.3
2022-07-26T08:42:17.955Z,31.4
2022-07-26T08:44:38.074Z,31.4
2022-07-26T08:46:53.024Z,31.3
2022-07-26T08:49:24.715Z,31.3
2022-07-26T08:51:39.503Z,31.6
2022-07-26T08:53:54.374Z,31.4
2022-07-26T08:56:23.382Z,31.2
2022-07-26T08:58:38.334Z,31.6
2022-07-26T09:00:53.094Z,31.4
2022-07-26T09:03:07.880Z,31.4
2022-07-26T09:05:22.773Z,31.3
2022-07-26T09:07:37.657Z,31.3
2022-07-26T09:09:52.590Z,31.4
2022-07-26T09:12:07.429Z,31.5
2022-07-26T09:14:22.448Z,31.3
2022-07-26T09:16:39.778Z,31.4
2022-07-26T09:18:51.876Z,31.3
2022-07-26T09:21:06.963Z,31.6
2022-07-26T09:23:21.672Z,31.4
2022-07-26T09:25:36.554Z,31.4
2022-07-26T09:27:51.376Z,31.3
2022-07-26T09:30:06.194Z,31.4
2022-07-26T09:32:21.109Z,31.6
2022-07-26T09:34:35.881Z,31.6
2022-07-26T09:37:12.213Z,31.4
2022-07-26T09:39:33.790Z,31.8
2022-07-26T09:41:38.331Z,31.6
2022-07-26T09:44:12.431Z,31.6
2022-07-26T09:46:27.148Z,31.8
2022-07-26T09:51:14.962Z,31.5
2022-07-26T09:53:29.868Z,31.6
2022-07-26T09:55:45.215Z,31.4
2022-07-26T09:57:59.530Z,31.6
2022-07-26T10:00:14.608Z,31.8
2022-07-26T10:02:29.139Z,31.7
2022-07-26T10:04:43.952Z,31.6
2022-07-26T10:06:58.795Z,31.6
2022-07-26T10:09:13.704Z,31.7
2022-07-26T10:11:28.570Z,31.4
2022-07-26T10:13:43.455Z,31.2
2022-07-26T10:15:58.324Z,31.4
2022-07-26T10:18:13.505Z,31.4
2022-07-26T10:20:27.981Z,31.3
2022-07-26T10:22:42.869Z,31.6
2022-07-26T10:25:01.789Z,31.5
2022-07-26T10:27:24.321Z,31.6
2022-07-26T10:29:45.766Z,31.4
2022-07-26T10:32:08.462Z,31.6
2022-07-26T10:34:27.715Z,31.5
2022-07-26T10:36:43.147Z,31.7
2022-07-26T10:38:57.979Z,31.8
2022-07-26T10:41:12.925Z,31.9
2022-07-26T10:43:42.401Z,31.7
2022-07-26T10:46:08.585Z,32
2022-07-26T10:48:23.297Z,31.9
2022-07-26T10:50:38.160Z,31.9
2022-07-26T10:52:53.212Z,32.1
2022-07-26T10:55:08.180Z,31.9
2022-07-26T10:57:23.281Z,31.8
2022-07-26T10:59:56.405Z,32
2022-07-26T11:02:10.674Z,32.1
2022-07-26T11:04:25.424Z,32.1
2022-07-26T11:06:40.218Z,32
2022-07-26T11:08:54.981Z,32.2
2022-07-26T11:11:09.882Z,32.2
2022-07-26T11:13:24.683Z,32.1
2022-07-26T11:15:39.503Z,32.1
2022-07-26T11:17:54.564Z,32.2
2022-07-26T11:20:09.244Z,31.9
2022-07-26T11:22:24.462Z,32
2022-07-26T11:24:39.040Z,32
2022-07-26T11:26:53.928Z,32
2022-07-26T11:29:08.636Z,31.9
2022-07-26T11:31:23.678Z,31.9
2022-07-26T11:33:53.751Z,31.8
2022-07-26T11:36:08.565Z,31.9
2022-07-26T11:38:23.531Z,31.9
2022-07-26T11:40:38.285Z,32
2022-07-26T11:42:53.609Z,31.9
2022-07-26T11:45:08.207Z,32.2
2022-07-26T11:47:24.139Z,32.2
2022-07-26T11:50:12.782Z,31.9
2022-07-26T11:52:20.738Z,31.9
2022-07-26T11:54:33.855Z,31.9
2022-07-26T11:56:48.531Z,31.8
2022-07-26T11:59:03.408Z,32.1
2022-07-26T12:01:18.328Z,32
2022-07-26T12:03:33.415Z,31.9
2022-07-26T12:05:48.061Z,32.1
2022-07-26T12:08:03.069Z,32.1
2022-07-26T12:10:17.729Z,32.3
2022-07-26T12:12:32.530Z,32.2
2022-07-26T12:15:08.099Z,32.1
2022-07-26T12:17:24.405Z,32.1
2022-07-26T12:19:39.911Z,32.2
2022-07-26T12:21:54.674Z,31.9
2022-07-26T12:24:14.282Z,32.1
2022-07-26T12:26:28.737Z,32.2
2022-07-26T12:28:43.025Z,32.1
2022-07-26T12:31:18.992Z,32.2
2022-07-26T12:33:33.756Z,32
2022-07-26T12:35:48.700Z,32.3
2022-07-26T12:38:03.515Z,32.1
2022-07-26T12:40:18.334Z,32.1
2022-07-26T12:42:34.555Z,32.1
2022-07-26T12:44:48.285Z,32.1
2022-07-26T12:47:02.865Z,32
2022-07-26T12:49:17.896Z,32.2
2022-07-26T12:51:32.590Z,32.1
2022-07-26T12:53:47.433Z,32.1
2022-07-26T12:56:02.373Z,31.8
2022-07-26T12:58:17.249Z,32.3
2022-07-26T13:00:31.949Z,31.9
2022-07-26T13:02:46.763Z,32.3
2022-07-26T13:05:01.758Z,32.1
2022-07-26T13:07:16.508Z,32.1
2022-07-26T13:09:31.353Z,32.1
2022-07-26T13:12:05.040Z,32.3
2022-07-26T13:14:19.669Z,32.1
2022-07-26T13:16:34.573Z,32.2
2022-07-26T13:18:49.366Z,32
2022-07-26T13:21:04.316Z,32.1
2022-07-26T13:23:20.125Z,32.2
2022-07-26T13:25:35.096Z,32.1
2022-07-26T13:27:48.841Z,32.2
2022-07-26T13:30:03.852Z,32.1
2022-07-26T13:32:18.572Z,32.2
2022-07-26T13:34:35.152Z,32.4
2022-07-26T13:36:48.309Z,32.3
2022-07-26T13:39:03.001Z,32.3
2022-07-26T13:41:18.204Z,32.3
2022-07-26T13:43:32.730Z,32.2
2022-07-26T13:45:47.673Z,32.3
2022-07-26T13:48:02.580Z,32.2
2022-07-26T13:50:17.370Z,32
2022-07-26T13:52:32.187Z,32.2
2022-07-26T13:54:47.084Z,32.1
2022-07-26T13:57:02.148Z,32.3
2022-07-26T13:59:21.482Z,32.1
2022-07-26T14:01:45.620Z,32.3
2022-07-26T14:04:00.702Z,32.3
2022-07-26T14:06:15.435Z,32.3
2022-07-26T14:08:30.906Z,32.4
2022-07-26T14:10:45.197Z,32.2
2022-07-26T14:13:00.039Z,32.2
2022-07-26T14:15:19.710Z,32.3
2022-07-26T14:17:30.122Z,32.4
2022-07-26T14:19:44.595Z,32.3
2022-07-26T14:22:01.354Z,32.4
2022-07-26T14:24:16.508Z,32.4
2022-07-26T14:26:30.820Z,32.1
2022-07-26T14:28:45.715Z,32.3
2022-07-26T14:31:00.525Z,32.1
2022-07-26T14:33:15.374Z,32.3
2022-07-26T14:35:30.325Z,32.4
2022-07-26T14:38:02.910Z,32.6
2022-07-26T14:40:17.527Z,32.1
2022-07-26T14:42:32.407Z,32.6
2022-07-26T14:44:47.229Z,32.4
2022-07-26T14:47:02.026Z,32.3
2022-07-26T14:49:32.153Z,32.1
2022-07-26T14:51:56.538Z,32.1
2022-07-26T14:54:11.690Z,32.5
2022-07-26T14:56:26.184Z,32.4
2022-07-26T14:58:41.351Z,32.3
2022-07-26T15:00:55.891Z,32.1
2022-07-26T15:03:10.638Z,32.2
2022-07-26T15:05:25.590Z,32.2
2022-07-26T15:07:40.491Z,32.2
2022-07-26T15:09:55.436Z,32.3
2022-07-26T15:12:10.114Z,32.3
2022-07-26T15:14:25.250Z,32.3
2022-07-26T15:16:39.839Z,32.3
2022-07-26T15:18:54.754Z,32.3
2022-07-26T15:21:09.576Z,32.2
2022-07-26T15:23:24.402Z,32.2
2022-07-26T15:25:39.204Z,32.5
2022-07-26T15:27:54.143Z,32.3
2022-07-26T15:30:13.113Z,32.3
2022-07-26T15:32:24.570Z,32.2
2022-07-26T15:34:39.605Z,32.3
2022-07-26T15:36:54.204Z,32.4
2022-07-26T15:39:17.440Z,32.4
2022-07-26T15:41:23.885Z,32.3
2022-07-26T15:43:51.367Z,32.3
2022-07-26T15:46:06.770Z,32.1
2022-07-26T15:48:48.092Z,32.4
2022-07-26T15:51:02.913Z,32.5
2022-07-26T15:53:17.823Z,32.3
2022-07-26T15:55:32.522Z,32.4
2022-07-26T15:57:47.677Z,32.3
2022-07-26T16:00:05.550Z,32.2
2022-07-26T16:02:17.332Z,32.3
2022-07-26T16:04:32.074Z,32.3
2022-07-26T16:06:46.993Z,32.3
2022-07-26T16:09:18.500Z,32.4
2022-07-26T16:11:32.389Z,32.2
2022-07-26T16:13:47.234Z,32.2
2022-07-26T16:16:01.961Z,32.4
2022-07-26T16:18:16.684Z,32.4
2022-07-26T16:20:31.577Z,32.4
2022-07-26T16:22:46.424Z,32.3
2022-07-26T16:25:01.282Z,32.4
2022-07-26T16:27:16.059Z,32.1
2022-07-26T16:29:30.961Z,32.4
2022-07-26T16:31:45.896Z,32.2
2022-07-26T16:34:00.794Z,32.3
2022-07-26T16:36:15.830Z,32.3
2022-07-26T16:38:30.389Z,32.4
2022-07-26T16:40:45.322Z,32.5
2022-07-26T16:43:00.152Z,32.3
2022-07-26T16:45:14.915Z,32.8
2022-07-26T16:47:29.838Z,32.3
2022-07-26T16:49:44.796Z,32.4
2022-07-26T16:51:59.645Z,33.4
2022-07-26T16:54:14.321Z,32.3
2022-07-26T16:56:29.700Z,32.1
2022-07-26T16:58:43.980Z,32.2
2022-07-26T17:00:58.867Z,32.4
2022-07-26T17:03:15.739Z,32.3
2022-07-26T17:05:28.584Z,32.4
2022-07-26T17:08:03.204Z,33.1
2022-07-26T17:10:18.082Z,33.4
2022-07-26T17:12:33.013Z,32.9
2022-07-26T17:14:47.787Z,33
2022-07-26T17:17:02.614Z,32.8
2022-07-26T17:19:17.556Z,32.5
2022-07-26T17:21:32.364Z,32.3
2022-07-26T17:23:47.227Z,32.3
2022-07-26T17:26:02.108Z,32.4
2022-07-26T17:28:16.967Z,33.3
2022-07-26T17:30:31.830Z,32.4
2022-07-26T17:32:47.022Z,33.2
2022-07-26T17:35:01.510Z,32.3
2022-07-26T17:37:16.174Z,33.1
2022-07-26T17:39:40.374Z,32.2
2022-07-26T17:41:54.891Z,32.6
2022-07-26T17:44:09.773Z,32.1
2022-07-26T17:46:24.538Z,33.2
2022-07-26T17:48:47.535Z,32.8
2022-07-26T17:51:20.020Z,32.6
2022-07-26T17:53:36.091Z,33
2022-07-26T17:55:50.872Z,32.9
2022-07-26T17:58:05.634Z,33.1
2022-07-26T18:00:20.478Z,32.3
2022-07-26T18:02:35.385Z,32.1
2022-07-26T18:04:50.294Z,32.8
2022-07-26T18:07:04.636Z,33
2022-07-26T18:09:19.390Z,32.6
2022-07-26T18:11:34.699Z,32.6
2022-07-26T18:13:49.564Z,32.8
2022-07-26T18:16:06.062Z,33.1
2022-07-26T18:18:19.249Z,32.7
2022-07-26T18:20:34.102Z,33.1
2022-07-26T18:22:54.181Z,32.9
2022-07-26T18:25:20.148Z,32.3
2022-07-26T18:27:34.989Z,33
2022-07-26T18:29:49.802Z,32.9
2022-07-26T18:32:04.644Z,33.1
2022-07-26T18:34:19.546Z,32.9
2022-07-26T18:36:34.401Z,32.7
2022-07-26T18:38:49.350Z,32.6
2022-07-26T18:41:04.058Z,32.7
2022-07-26T18:43:18.940Z,32.6
2022-07-26T18:45:33.822Z,32.5
2022-07-26T18:47:48.755Z,32.8
2022-07-26T18:50:03.510Z,32.1
2022-07-26T18:52:28.248Z,32.3
2022-07-26T18:54:33.456Z,32.1
2022-07-26T18:56:48.289Z,32.3
2022-07-26T18:59:03.189Z,33.3
2022-07-26T19:01:17.988Z,32.7
2022-07-26T19:03:32.884Z,32.9
2022-07-26T19:05:47.718Z,32.6
2022-07-26T19:08:02.653Z,32.6
2022-07-26T19:10:17.668Z,32.8
2022-07-26T19:12:32.372Z,32.9
2022-07-26T19:14:47.175Z,32.8
2022-07-26T19:17:02.145Z,32.6
2022-07-26T19:19:17.043Z,32.9
2022-07-26T19:21:31.583Z,32.7
2022-07-26T19:23:46.590Z,33
2022-07-26T19:26:01.450Z,32.9
2022-07-26T19:28:16.271Z,32.9
2022-07-26T19:30:31.156Z,32.9
2022-07-26T19:32:46.002Z,32.8
2022-07-26T19:35:00.842Z,32.8
2022-07-26T19:37:15.626Z,32.4
2022-07-26T19:39:30.377Z,33.2
2022-07-26T19:41:45.323Z,32.8
2022-07-26T19:44:00.085Z,32.6
2022-07-26T19:46:15.086Z,32.8
2022-07-26T19:48:29.930Z,32.9
2022-07-26T19:50:44.671Z,32.9
2022-07-26T19:52:59.632Z,32.8
2022-07-26T19:55:14.544Z,32.9
2022-07-26T19:57:29.287Z,32.9
2022-07-26T19:59:44.120Z,32.9
2022-07-26T20:01:59.426Z,32.9
2022-07-26T20:04:13.928Z,33.2
2022-07-26T20:06:28.724Z,32.7
2022-07-26T20:08:43.564Z,32.8
2022-07-26T20:11:05.675Z,32.2
2022-07-26T20:13:20.489Z,32
2022-07-26T20:15:35.238Z,32.6
2022-07-26T20:17:56.497Z,33.3
2022-07-26T20:20:11.456Z,32.8
2022-07-26T20:22:26.180Z,32.9
2022-07-26T20:24:41.039Z,32.8
2022-07-26T20:26:56.545Z,32.9
2022-07-26T20:29:11.847Z,32.6
2022-07-26T20:31:25.606Z,32.9
2022-07-26T20:33:40.402Z,32.9
2022-07-26T20:35:55.723Z,32.9
2022-07-26T20:38:10.146Z,32.6
2022-07-26T20:40:24.946Z,32.8
2022-07-26T20:42:40.512Z,32.4
2022-07-26T20:44:54.724Z,32.6
2022-07-26T20:47:09.548Z,32.9
2022-07-26T20:49:24.484Z,32.9
2022-07-26T20:51:40.641Z,32.9
2022-07-26T20:53:54.026Z,32.9
2022-07-26T20:56:08.947Z,32.8
2022-07-26T20:58:23.878Z,32.8
2022-07-26T21:00:38.627Z,32.7
2022-07-26T21:02:53.460Z,32.7
2022-07-26T21:05:07.840Z,32.7
2022-07-26T21:07:23.199Z,33.1
2022-07-26T21:09:47.036Z,32.7
2022-07-26T21:12:01.757Z,32.9
2022-07-26T21:14:16.618Z,32.8
2022-07-26T21:16:31.592Z,33
2022-07-26T21:18:52.502Z,32
2022-07-26T21:21:01.221Z,32.5
2022-07-26T21:23:18.427Z,32.4
2022-07-26T21:25:32.946Z,32.5
2022-07-26T21:27:47.909Z,32.1
2022-07-26T21:30:02.636Z,33.3
2022-07-26T21:32:17.515Z,32.1
2022-07-26T21:34:32.418Z,33.1
2022-07-26T21:36:47.151Z,32.7
2022-07-26T21:39:02.210Z,32.6
2022-07-26T21:41:16.829Z,32.9
2022-07-26T21:43:31.700Z,32.6
2022-07-26T21:45:46.536Z,32.8
2022-07-26T21:48:01.358Z,32.7
2022-07-26T21:50:16.260Z,32.4
2022-07-26T21:52:31.073Z,32.7
2022-07-26T21:54:46.156Z,32.8
2022-07-26T21:57:00.753Z,32.9
2022-07-26T21:59:15.799Z,32.3
2022-07-26T22:01:30.621Z,32.6
2022-07-26T22:03:45.365Z,32.5
2022-07-26T22:06:00.248Z,31.9
2022-07-26T22:08:14.998Z,32.1
2022-07-26T22:10:30.078Z,32.1
2022-07-26T22:12:44.852Z,32.4
2022-07-26T22:14:59.588Z,32.4
2022-07-26T22:17:14.412Z,32.9
2022-07-26T22:19:29.209Z,32.9
2022-07-26T22:21:44.138Z,32.7
2022-07-26T22:23:59.071Z,33.4
2022-07-26T22:26:14.057Z,33.2
2022-07-26T22:28:28.659Z,32.1
2022-07-26T22:30:43.699Z,33
2022-07-26T22:32:58.411Z,32.5
2022-07-26T22:35:13.286Z,32.8
2022-07-26T22:37:28.077Z,32.1
2022-07-26T22:39:42.911Z,32.1
2022-07-26T22:42:16.197Z,33.4
2022-07-26T22:44:30.606Z,32.1
2022-07-26T22:46:45.739Z,32.6
2022-07-26T22:49:00.413Z,32.8
2022-07-26T22:51:15.288Z,32.2
2022-07-26T22:53:30.035Z,32.3
2022-07-26T22:55:44.959Z,32.4
2022-07-26T22:57:59.751Z,32.3
2022-07-26T23:00:14.530Z,32.6
2022-07-26T23:02:29.408Z,32.4
2022-07-26T23:04:44.334Z,32.2
2022-07-26T23:07:03.772Z,32.4
2022-07-26T23:09:33.039Z,32.1
2022-07-26T23:11:47.864Z,32.6
2022-07-26T23:14:02.802Z,32.4
2022-07-26T23:16:17.661Z,32.9
2022-07-26T23:18:32.541Z,33.1
2022-07-26T23:20:47.327Z,32
2022-07-26T23:23:02.280Z,32.4
2022-07-26T23:25:17.100Z,32.6
2022-07-26T23:27:31.942Z,32.4
2022-07-26T23:29:54.068Z,32.9
2022-07-26T23:32:08.966Z,33.1
2022-07-26T23:34:40.786Z,33.3
2022-07-26T23:36:55.109Z,32.8
2022-07-26T23:39:10.172Z,33.1
2022-07-26T23:41:24.708Z,32.6
2022-07-26T23:43:39.709Z,32
2022-07-26T23:45:54.554Z,32.3
2022-07-26T23:48:09.428Z,31.9
2022-07-26T23:50:24.129Z,32.4
2022-07-26T23:52:39.267Z,32.5
2022-07-26T23:54:53.830Z,31.9
2022-07-26T23:57:08.787Z,32.2
2022-07-26T23:59:23.757Z,32.3
